Time;durP1;ratioP1;P1;durP2;ratioP2;P2;SDS_P1;SDS_P2;PMS_P1;PMS_P2;Temp;Humidity;BMP_temperature;BMP_pressure;BME280_temperature;BME280_humidity;BME280_pressure;Samples;Min_cycle;Max_cycle;Signal;HPM_P1;HPM_P2
2021/05/21 00:00:17;;;;;;;5.57;3.77;;;;;;;10.56;66.96;100676.47;5071047;28;20054;-73
2021/05/21 00:02:43;;;;;;;5.40;3.70;;;;;;;10.55;66.92;100672.09;5070035;28;20041;-72
2021/05/21 00:05:09;;;;;;;7.33;4.53;;;;;;;10.52;67.31;100669.78;5069905;28;20305;-73
2021/05/21 00:07:34;;;;;;;7.57;3.90;;;;;;;10.47;67.17;100669.44;5052978;28;20043;-73
2021/05/21 00:09:59;;;;;;;3.80;3.17;;;;;;;10.48;66.37;100664.94;5069817;28;20040;-73
2021/05/21 00:12:25;;;;;;;5.43;3.90;;;;;;;10.45;66.48;100660.75;5069962;28;20036;-73
2021/05/21 00:14:50;;;;;;;5.67;3.53;;;;;;;10.37;66.55;100651.88;5069765;28;20055;-72
2021/05/21 00:17:16;;;;;;;5.57;3.55;;;;;;;10.35;66.43;100650.22;5070898;28;20044;-73
2021/05/21 00:19:41;;;;;;;6.57;3.97;;;;;;;10.34;65.90;100642.38;5070538;28;20361;-73
2021/05/21 00:22:06;;;;;;;8.67;4.30;;;;;;;10.31;66.19;100640.03;5070751;28;20522;-73
2021/05/21 00:24:32;;;;;;;8.07;4.97;;;;;;;10.30;65.86;100625.00;5070585;28;20469;-73
2021/05/21 00:26:57;;;;;;;6.17;3.70;;;;;;;10.29;65.86;100628.69;5070839;28;20520;-73
2021/05/21 00:29:22;;;;;;;8.20;4.53;;;;;;;10.27;66.11;100619.97;5069480;28;20040;-73
2021/05/21 00:31:48;;;;;;;8.47;4.80;;;;;;;10.27;65.73;100609.31;5069939;28;20044;-73
2021/05/21 00:34:13;;;;;;;6.97;4.70;;;;;;;10.25;65.77;100605.97;5070663;28;20036;-73
2021/05/21 00:36:39;;;;;;;6.70;4.70;;;;;;;10.18;66.13;100600.44;5070752;28;20068;-73
2021/05/21 00:39:05;;;;;;;9.03;4.57;;;;;;;10.12;66.53;100595.78;5070227;28;20032;-73
2021/05/21 00:41:30;;;;;;;;;;;;;;;10.04;67.29;100593.06;5071044;28;20051;-73
2021/05/21 00:43:56;;;;;;;8.80;4.97;;;;;;;9.99;67.59;100590.06;5069621;28;19916;-73
2021/05/21 00:46:22;;;;;;;9.45;5.03;;;;;;;10.00;67.62;100581.91;5052917;28;20087;-72
2021/05/21 00:48:47;;;;;;;6.57;4.30;;;;;;;9.87;68.09;100581.53;5070247;28;20067;-72
2021/05/21 00:51:13;;;;;;;5.20;4.17;;;;;;;9.84;68.38;100581.88;5070633;28;20048;-73
2021/05/21 00:53:39;;;;;;;6.70;4.63;;;;;;;9.91;67.83;100574.88;5069434;28;20036;-72
2021/05/21 00:56:05;;;;;;;;;;;;;;;9.88;68.29;100572.53;5070933;28;20462;-73
2021/05/21 00:58:30;;;;;;;;;;;;;;;9.83;68.54;100564.19;5070632;28;19958;-72
2021/05/21 01:00:56;;;;;;;7.83;5.00;;;;;;;9.81;68.51;100556.38;5073760;28;19912;-73
2021/05/21 01:03:21;;;;;;;9.02;6.15;;;;;;;9.76;68.97;100552.50;5072850;28;20029;-72
2021/05/21 01:05:47;;;;;;;7.30;5.53;;;;;;;9.71;69.39;100543.16;5056210;28;20035;-73
2021/05/21 01:08:19;;;;;;;8.27;5.33;;;;;;;9.53;69.74;100537.09;5072519;28;20033;-73
2021/05/21 01:10:45;;;;;;;8.10;5.55;;;;;;;9.49;70.32;100535.75;5072913;28;20033;-73
2021/05/21 01:13:11;;;;;;;7.82;5.43;;;;;;;9.49;70.41;100539.25;5073845;28;20131;-73
2021/05/21 01:15:38;;;;;;;7.97;5.78;;;;;;;9.31;71.60;100527.84;5073654;28;20075;-72
2021/05/21 01:18:09;;;;;;;8.98;5.88;;;;;;;9.30;72.04;100516.34;5073414;28;20068;-72
2021/05/21 01:20:36;;;;;;;10.35;5.70;;;;;;;9.33;72.16;100511.72;5073643;28;20071;-72
2021/05/21 01:23:03;;;;;;;11.75;6.07;;;;;;;9.25;72.66;100501.84;5073370;28;20067;-72
2021/05/21 01:25:28;;;;;;;12.98;7.45;;;;;;;9.26;72.57;100498.19;5073493;28;20037;-73
2021/05/21 01:27:55;;;;;;;10.77;6.20;;;;;;;9.36;72.60;100484.72;5072539;28;20044;-73
2021/05/21 01:30:21;;;;;;;9.20;6.18;;;;;;;9.25;73.24;100489.38;5073532;28;20029;-73
2021/05/21 01:32:47;;;;;;;10.98;5.75;;;;;;;9.39;72.95;100492.41;5072464;28;20036;-72
2021/05/21 01:35:15;;;;;;;8.77;6.57;;;;;;;9.43;72.87;100485.75;5073428;28;20442;-72
2021/05/21 01:37:47;;;;;;;8.25;6.28;;;;;;;9.30;73.41;100473.72;5072171;28;20361;-73
2021/05/21 01:40:13;;;;;;;9.82;7.30;;;;;;;9.32;73.50;100486.03;5073389;28;20847;-73
2021/05/21 01:42:39;;;;;;;9.43;6.75;;;;;;;9.25;73.91;100470.72;5073287;28;20037;-72
2021/05/21 01:45:10;;;;;;;9.50;7.25;;;;;;;9.32;73.47;100470.91;5073098;28;20048;-74
2021/05/21 01:47:36;;;;;;;8.90;6.30;;;;;;;9.36;73.40;100471.41;5071891;28;20047;-73
2021/05/21 01:50:03;;;;;;;11.77;7.22;;;;;;;9.30;73.56;100468.41;5073079;28;20036;-72
2021/05/21 01:52:28;;;;;;;11.85;7.38;;;;;;;9.28;73.97;100459.72;5073051;28;20163;-73
2021/05/21 01:54:54;;;;;;;12.33;6.93;;;;;;;9.34;73.62;100454.75;5071980;28;20071;-72
2021/05/21 01:57:19;;;;;;;12.60;7.80;;;;;;;9.17;74.17;100461.84;5073006;28;20036;-73
2021/05/21 01:59:44;;;;;;;10.70;7.23;;;;;;;9.09;74.61;100449.34;5071608;28;20032;-73
2021/05/21 02:02:10;;;;;;;15.27;8.50;;;;;;;9.13;74.55;100450.69;5072932;28;20032;-73
2021/05/21 02:04:37;;;;;;;15.43;8.87;;;;;;;9.07;74.83;100436.19;5072537;28;20169;-73
2021/05/21 02:07:04;;;;;;;11.27;7.57;;;;;;;9.00;75.23;100424.50;5072815;28;20092;-73
2021/05/21 02:09:35;;;;;;;12.30;8.00;;;;;;;8.84;76.09;100429.75;5072095;28;20077;-72
2021/05/21 02:12:04;;;;;;;15.10;7.70;;;;;;;8.95;75.69;100431.31;5055099;28;20033;-72
2021/05/21 02:14:30;;;;;;;14.73;9.73;;;;;;;8.88;75.91;100415.97;5071635;28;20445;-73
2021/05/21 02:16:55;;;;;;;12.90;9.33;;;;;;;8.88;76.02;100407.16;5072476;28;20028;-73
2021/05/21 02:19:20;;;;;;;12.27;8.70;;;;;;;8.82;76.31;100400.63;5071349;28;20222;-72
2021/05/21 02:21:46;;;;;;;12.33;7.93;;;;;;;8.84;76.27;100387.97;5072468;28;20039;-73
2021/05/21 02:24:12;;;;;;;12.88;8.48;;;;;;;8.88;75.86;100392.00;5072293;28;20037;-72
2021/05/21 02:26:37;;;;;;;12.67;8.70;;;;;;;8.82;76.30;100395.28;5072397;28;20044;-73
2021/05/21 02:29:03;;;;;;;13.37;8.53;;;;;;;8.76;76.34;100379.97;5071137;28;20101;-72
2021/05/21 02:31:29;;;;;;;18.02;10.73;;;;;;;8.77;76.51;100389.63;5054544;28;20085;-73
2021/05/21 02:33:54;;;;;;;15.10;9.13;;;;;;;8.77;76.60;100378.16;5071006;28;20024;-72
2021/05/21 02:36:19;;;;;;;15.30;9.17;;;;;;;8.70;77.01;100369.97;5072087;28;20450;-73
2021/05/21 02:38:45;;;;;;;14.20;9.23;;;;;;;8.71;77.40;100365.47;5071750;28;20119;-73
2021/05/21 02:41:10;;;;;;;17.20;10.13;;;;;;;8.66;77.38;100357.97;5071090;28;20040;-73
2021/05/21 02:43:35;;;;;;;11.10;8.37;;;;;;;8.66;77.23;100342.84;5070967;28;20036;-72
2021/05/21 02:46:01;;;;;;;17.23;10.70;;;;;;;8.68;77.18;100340.00;5071059;28;20032;-72
2021/05/21 02:48:26;;;;;;;14.83;9.57;;;;;;;8.66;77.47;100339.31;5071561;28;20034;-73
2021/05/21 02:50:51;;;;;;;17.20;9.90;;;;;;;8.64;77.66;100333.34;5071997;28;20079;-72
2021/05/21 02:53:17;;;;;;;14.70;9.10;;;;;;;8.57;78.01;100335.81;5071958;28;20102;-72
2021/05/21 02:55:42;;;;;;;13.23;8.60;;;;;;;8.57;78.00;100334.97;5071841;28;20040;-72
2021/05/21 02:58:07;;;;;;;13.50;8.07;;;;;;;8.60;77.38;100332.84;5071619;28;20032;-72
2021/05/21 03:00:33;;;;;;;12.90;7.70;;;;;;;8.60;77.65;100329.34;5070823;28;20428;-72
2021/05/21 03:02:58;;;;;;;16.00;9.20;;;;;;;8.55;77.67;100326.34;5053903;28;20441;-72
2021/05/21 03:05:24;;;;;;;13.17;8.80;;;;;;;8.52;77.91;100326.63;5071576;28;20101;-72
2021/05/21 03:07:57;;;;;;;12.67;8.43;;;;;;;8.39;78.53;100321.72;5070408;28;20032;-72
2021/05/21 03:10:24;;;;;;;14.98;9.50;;;;;;;8.41;78.75;100317.94;5070561;28;20024;-72
2021/05/21 03:12:49;;;;;;;12.93;8.85;;;;;;;8.40;78.45;100313.59;5070548;28;20036;-72
2021/05/21 03:15:15;;;;;;;14.48;9.68;;;;;;;8.41;78.72;100306.47;5070403;28;20039;-72
2021/05/21 03:17:40;;;;;;;16.80;9.00;;;;;;;8.39;78.67;100311.91;5053348;28;20802;-72
2021/05/21 03:20:06;;;;;;;8.87;6.27;;;;;;;8.42;78.70;100300.97;5070466;28;20036;-72
2021/05/21 03:22:32;;;;;;;10.90;8.30;;;;;;;8.45;78.45;100292.69;5070627;28;20036;-72
2021/05/21 03:25:01;;;;;;;11.60;8.32;;;;;;;8.50;78.51;100299.34;5070464;28;20048;-72
2021/05/21 03:27:27;;;;;;;11.38;7.82;;;;;;;8.54;78.32;100293.53;5070226;28;20128;-73
2021/05/21 03:29:52;;;;;;;11.70;7.57;;;;;;;8.56;78.26;100290.72;5071165;28;20131;-73
2021/05/21 03:32:18;;;;;;;11.50;8.30;;;;;;;8.61;78.23;100291.91;5071323;28;20040;-72
2021/05/21 03:34:43;;;;;;;17.55;8.23;;;;;;;8.58;78.02;100276.28;5071288;28;20032;-72
2021/05/21 03:37:09;;;;;;;13.13;7.60;;;;;;;8.69;77.78;100277.81;5071159;28;20533;-73
2021/05/21 03:39:34;;;;;;;9.33;6.50;;;;;;;8.73;77.52;100265.84;5070949;28;20039;-73
2021/05/21 03:41:59;;;;;;;10.90;7.33;;;;;;;8.73;77.77;100263.16;5070115;28;20040;-73
2021/05/21 03:44:24;;;;;;;14.47;8.27;;;;;;;8.73;77.39;100255.19;5070940;28;20036;-73
2021/05/21 03:46:50;;;;;;;10.53;7.07;;;;;;;8.79;77.43;100259.88;5069997;28;20101;-73
2021/05/21 03:49:16;;;;;;;11.00;7.30;;;;;;;8.82;77.56;100259.53;5070033;28;20076;-73
2021/05/21 03:51:42;;;;;;;11.60;7.15;;;;;;;8.78;77.66;100252.03;5070156;28;20044;-73
2021/05/21 03:54:08;;;;;;;10.52;6.63;;;;;;;8.88;77.26;100248.25;5053413;28;20035;-73
2021/05/21 03:56:33;;;;;;;9.10;7.15;;;;;;;8.85;77.72;100250.41;5071090;28;20044;-73
2021/05/21 03:58:59;;;;;;;11.77;7.33;;;;;;;8.84;77.62;100238.09;5069725;28;20085;-73
2021/05/21 04:01:25;;;;;;;12.30;7.10;;;;;;;8.81;77.60;100238.41;5070992;28;20151;-73
2021/05/21 04:03:50;;;;;;;16.17;6.53;;;;;;;8.84;78.23;100230.94;5069958;28;20453;-73
2021/05/21 04:06:16;;;;;;;11.40;6.30;;;;;;;8.82;77.75;100222.25;5069952;28;20048;-73
2021/05/21 04:08:42;;;;;;;11.70;6.87;;;;;;;8.76;78.30;100217.63;5070654;28;20040;-73
2021/05/21 04:11:08;;;;;;;10.88;6.53;;;;;;;8.73;78.27;100214.44;5070876;28;20040;-73
2021/05/21 04:13:33;;;;;;;12.70;7.35;;;;;;;8.79;78.45;100209.28;5070905;28;20032;-73
2021/05/21 04:15:59;;;;;;;14.30;7.63;;;;;;;8.75;78.98;100204.47;5070683;28;20063;-73
2021/05/21 04:18:24;;;;;;;12.20;7.83;;;;;;;8.78;79.06;100202.31;5052879;28;20036;-73
2021/05/21 04:20:49;;;;;;;11.53;7.00;;;;;;;8.75;79.22;100191.97;5070729;28;20043;-73
2021/05/21 04:23:14;;;;;;;11.90;7.10;;;;;;;8.88;79.27;100191.50;5069890;28;20037;-73
2021/05/21 04:25:40;;;;;;;11.07;7.90;;;;;;;8.84;78.90;100191.00;5053032;28;20037;-73
2021/05/21 04:28:05;;;;;;;11.33;7.37;;;;;;;8.86;79.07;100183.69;5069469;28;20063;-74
2021/05/21 04:30:31;;;;;;;12.57;6.10;;;;;;;8.99;78.74;100177.88;5069618;28;20032;-73
2021/05/21 04:32:56;;;;;;;12.07;7.83;;;;;;;8.81;79.29;100174.53;5070240;28;20054;-74
2021/05/21 04:35:22;;;;;;;9.73;6.77;;;;;;;8.99;79.43;100182.34;5073618;28;20029;-73
2021/05/21 04:37:47;;;;;;;10.63;7.40;;;;;;;9.11;78.61;100170.41;5074154;28;20371;-74
2021/05/21 04:40:14;;;;;;;10.67;6.83;;;;;;;9.15;78.32;100166.38;5074420;28;20723;-74
2021/05/21 04:42:39;;;;;;;11.48;7.20;;;;;;;9.23;78.52;100166.38;5073457;28;20469;-73
2021/05/21 04:45:07;;;;;;;9.57;5.97;;;;;;;9.19;78.64;100157.06;5056391;28;20036;-73
2021/05/21 04:47:33;;;;;;;10.50;6.22;;;;;;;9.21;78.13;100147.06;5074008;28;20652;-74
2021/05/21 04:49:58;;;;;;;;;;;;;;;9.20;77.90;100142.75;5074613;28;20068;-73
2021/05/21 04:52:24;;;;;;;11.13;6.63;;;;;;;9.33;77.74;100138.75;5074056;28;19958;-73
2021/05/21 04:54:49;;;;;;;13.03;6.87;;;;;;;9.46;77.50;100141.72;5074072;28;20305;-74
2021/05/21 04:57:15;;;;;;;9.43;5.77;;;;;;;9.84;76.02;100139.28;5074090;28;20032;-73
2021/05/21 04:59:40;;;;;;;12.53;6.60;;;;;;;9.75;76.13;100134.97;5072677;28;20060;-73
2021/05/21 05:02:05;;;;;;;10.77;5.87;;;;;;;9.58;76.37;100128.88;5056348;28;20032;-73
2021/05/21 05:04:32;;;;;;;12.37;6.17;;;;;;;9.72;75.40;100130.81;5073858;28;20032;-73
2021/05/21 05:06:57;;;;;;;9.38;5.75;;;;;;;10.02;74.67;100121.19;5072941;28;20750;-73
2021/05/21 05:09:23;;;;;;;7.50;5.23;;;;;;;10.26;72.60;100117.56;5072698;28;20040;-73
2021/05/21 05:11:48;;;;;;;7.77;4.60;;;;;;;10.59;72.49;100105.88;5073932;28;20504;-74
2021/05/21 05:14:13;;;;;;;8.33;5.27;;;;;;;10.58;71.80;100105.03;5072548;28;20291;-73
2021/05/21 05:16:40;;;;;;;8.90;5.40;;;;;;;10.55;71.67;100100.06;5073860;28;20036;-73
2021/05/21 05:19:06;;;;;;;7.35;4.63;;;;;;;10.41;71.60;100115.00;5073412;28;20024;-73
2021/05/21 05:21:33;;;;;;;9.27;5.40;;;;;;;10.88;70.48;100100.59;5073644;28;20037;-73
2021/05/21 05:24:01;;;;;;;6.47;4.25;;;;;;;11.05;70.24;100103.13;5071800;28;20082;-73
2021/05/21 05:26:27;;;;;;;9.38;4.75;;;;;;;11.58;68.24;100095.91;5071031;28;20064;-72
2021/05/21 05:28:52;;;;;;;6.67;4.77;;;;;;;11.27;68.45;100093.41;5071405;28;20113;-73
2021/05/21 05:31:19;;;;;;;6.97;4.20;;;;;;;10.73;70.21;100087.22;5070916;28;20036;-73
2021/05/21 05:33:45;;;;;;;8.43;4.35;;;;;;;10.81;70.58;100086.31;5070844;28;20036;-73
2021/05/21 05:36:10;;;;;;;8.50;4.05;;;;;;;11.01;69.39;100084.00;5071914;28;20036;-74
2021/05/21 05:38:35;;;;;;;16.80;4.73;;;;;;;10.99;69.15;100076.16;5072614;28;20035;-73
2021/05/21 05:41:01;;;;;;;5.80;4.40;;;;;;;10.72;70.22;100072.22;5073301;28;20048;-72
2021/05/21 05:43:26;;;;;;;8.63;4.83;;;;;;;10.52;71.20;100071.06;5072982;28;20120;-73
2021/05/21 05:45:52;;;;;;;6.37;4.43;;;;;;;10.40;71.37;100065.31;5071308;28;20353;-73
2021/05/21 05:48:20;;;;;;;6.50;5.07;;;;;;;10.37;71.75;100057.63;5071950;28;20036;-72
2021/05/21 05:50:47;;;;;;;7.40;5.28;;;;;;;10.35;72.19;100057.00;5070442;28;20127;-73
2021/05/21 05:53:14;;;;;;;8.50;4.88;;;;;;;11.35;69.45;100056.72;5068824;28;20504;-72
2021/05/21 05:55:41;;;;;;;8.63;4.40;;;;;;;11.23;69.14;100057.38;5068161;28;20028;-73
2021/05/21 05:58:07;;;;;;;6.88;4.55;;;;;;;11.08;70.13;100054.72;5067907;28;20055;-73
2021/05/21 06:00:33;;;;;;;6.25;4.40;;;;;;;10.61;72.54;100047.81;5068713;28;20048;-72
2021/05/21 06:03:10;;;;;;;7.93;5.30;;;;;;;10.24;74.92;100060.88;5069706;28;20049;-73
2021/05/21 06:05:37;;;;;;;8.50;4.72;;;;;;;10.18;75.38;100042.06;5052975;28;20112;-74
2021/05/21 06:08:05;;;;;;;7.28;5.15;;;;;;;10.17;77.92;100048.44;5053534;28;20051;-73
2021/05/21 06:10:30;;;;;;;7.88;5.93;;;;;;;9.84;79.70;100040.63;5070603;28;20534;-74
2021/05/21 06:13:04;;;;;;;8.85;5.65;;;;;;;9.76;80.01;100038.81;5071552;28;20119;-73
2021/05/21 06:15:30;;;;;;;9.48;5.60;;;;;;;9.70;79.74;100039.53;5054801;28;20105;-73
2021/05/21 06:17:56;;;;;;;8.80;6.18;;;;;;;9.62;80.90;100040.41;5072130;28;20454;-73
2021/05/21 06:20:23;;;;;;;11.88;6.32;;;;;;;9.62;80.56;100029.75;5071472;28;20041;-71
2021/05/21 06:22:48;;;;;;;8.02;5.70;;;;;;;9.54;81.90;100035.09;5071061;28;20048;-73
2021/05/21 06:25:16;;;;;;;10.97;5.33;;;;;;;9.67;81.28;100042.53;5071131;28;20117;-74
2021/05/21 06:27:41;;;;;;;8.88;5.95;;;;;;;9.68;80.83;100030.88;5054669;28;20132;-74
2021/05/21 06:30:09;;;;;;;8.30;5.20;;;;;;;9.84;81.05;100024.63;5071135;28;20135;-72
2021/05/21 06:32:34;;;;;;;9.40;6.30;;;;;;;10.02;80.29;100014.53;5070557;28;20033;-73
2021/05/21 06:35:00;;;;;;;13.47;5.53;;;;;;;10.10;80.23;100021.63;5070901;28;20044;-73
2021/05/21 06:37:28;;;;;;;8.13;5.37;;;;;;;10.07;80.36;100017.47;5071071;28;20043;-73
2021/05/21 06:39:53;;;;;;;7.28;5.00;;;;;;;10.09;79.44;100019.94;5071931;28;20466;-73
2021/05/21 06:42:19;;;;;;;7.03;5.53;;;;;;;10.07;80.23;100011.31;5071061;28;20028;-73
2021/05/21 06:44:44;;;;;;;8.67;5.60;;;;;;;10.24;79.60;100012.03;5070917;28;20047;-73
2021/05/21 06:47:09;;;;;;;7.10;4.40;;;;;;;10.33;78.54;100005.66;5071946;28;20370;-73
2021/05/21 06:49:38;;;;;;;8.67;4.47;;;;;;;10.33;77.54;100011.81;5071599;28;20343;-74
2021/05/21 06:52:04;;;;;;;6.88;4.63;;;;;;;10.59;77.91;100004.44;5071552;28;20072;-73
2021/05/21 06:54:29;;;;;;;5.70;4.28;;;;;;;11.00;76.45;100004.84;5070750;28;20071;-73
2021/05/21 06:56:55;;;;;;;7.40;4.97;;;;;;;11.39;76.54;100001.06;5071689;28;20105;-73
2021/05/21 06:59:20;;;;;;;6.97;4.57;;;;;;;11.28;74.11;99997.03;5070282;28;20275;-73
2021/05/21 07:01:45;;;;;;;4.93;3.73;;;;;;;11.47;74.07;99992.13;5054128;28;20118;-73
2021/05/21 07:04:11;;;;;;;7.83;4.03;;;;;;;12.24;72.74;99988.88;5070429;28;20408;-73
2021/05/21 07:06:36;;;;;;;5.17;3.40;;;;;;;11.89;70.51;99991.41;5071570;28;20040;-72
2021/05/21 07:09:02;;;;;;;4.13;3.10;;;;;;;12.30;71.16;99995.31;5071254;28;20028;-73
2021/05/21 07:11:27;;;;;;;6.68;3.25;;;;;;;12.07;71.49;99990.16;5071523;28;20115;-72
2021/05/21 07:13:53;;;;;;;4.57;3.27;;;;;;;11.98;71.53;99998.28;5070453;28;20146;-71
2021/05/21 07:16:19;;;;;;;7.13;3.78;;;;;;;11.96;71.95;99999.50;5070156;28;20072;-71
2021/05/21 07:18:44;;;;;;;4.70;3.53;;;;;;;12.12;72.41;99993.09;5071213;28;20166;-70
2021/05/21 07:21:09;;;;;;;7.13;4.47;;;;;;;11.92;73.92;99990.22;5071011;28;20472;-71
2021/05/21 07:23:35;;;;;;;5.57;3.87;;;;;;;11.70;71.42;99987.47;5070199;28;20102;-72
2021/05/21 07:26:00;;;;;;;6.28;3.75;;;;;;;11.33;73.92;99980.44;5071055;28;20044;-74
2021/05/21 07:28:26;;;;;;;8.23;4.47;;;;;;;11.31;73.92;99975.28;5069889;28;20033;-71
2021/05/21 07:30:53;;;;;;;5.47;3.83;;;;;;;10.90;75.40;99986.44;5070210;28;20036;-71
2021/05/21 07:33:18;;;;;;;7.72;4.88;;;;;;;10.72;78.46;99986.81;5070332;28;20036;-74
2021/05/21 07:35:44;;;;;;;11.53;4.37;;;;;;;10.59;77.51;99981.25;5069979;28;20029;-73
2021/05/21 07:38:09;;;;;;;5.83;4.07;;;;;;;10.49;79.13;99978.84;5070052;28;20063;-73
2021/05/21 07:40:34;;;;;;;6.67;4.43;;;;;;;10.56;79.07;99974.44;5071205;28;20042;-73
2021/05/21 07:43:00;;;;;;;8.07;4.23;;;;;;;10.60;79.75;99974.88;5071043;28;20032;-72
2021/05/21 07:45:26;;;;;;;4.97;3.88;;;;;;;10.50;79.81;99972.47;5069881;28;20029;-72
2021/05/21 07:47:52;;;;;;;7.78;4.68;;;;;;;10.40;80.38;99973.75;5069757;28;20044;-72
2021/05/21 07:50:17;;;;;;;7.00;4.73;;;;;;;10.41;79.75;99981.56;5068651;28;20093;-73
2021/05/21 07:52:42;;;;;;;6.87;4.30;;;;;;;10.40;80.27;99974.59;5068988;28;20042;-73
2021/05/21 07:55:08;;;;;;;7.03;4.50;;;;;;;10.38;80.02;99976.59;5068422;28;20033;-73
2021/05/21 07:57:36;;;;;;;8.77;4.60;;;;;;;10.40;80.23;99968.41;5069143;28;20033;-73
2021/05/21 08:00:05;;;;;;;7.07;4.78;;;;;;;10.54;79.37;99964.94;5051645;28;20374;-73
2021/05/21 08:02:35;;;;;;;6.30;4.25;;;;;;;10.95;78.99;99965.34;5068471;28;20076;-73
2021/05/21 08:05:01;;;;;;;9.98;4.68;;;;;;;11.30;77.05;99954.91;5068159;28;20075;-72
2021/05/21 08:07:27;;;;;;;5.68;4.15;;;;;;;11.84;74.68;99951.81;5069532;28;20063;-73
2021/05/21 08:09:54;;;;;;;6.07;3.63;;;;;;;12.51;73.95;99955.13;5073659;28;20529;-72
2021/05/21 08:12:20;;;;;;;6.97;4.03;;;;;;;12.61;73.43;99952.13;5074080;28;20086;-73
2021/05/21 08:14:47;;;;;;;7.33;4.70;;;;;;;12.13;74.36;99959.97;5073976;28;20119;-72
2021/05/21 08:17:13;;;;;;;5.50;3.63;;;;;;;12.12;74.40;99951.09;5073901;28;20043;-72
2021/05/21 08:19:38;;;;;;;6.60;3.88;;;;;;;12.15;73.32;99949.88;5073371;28;20036;-73
2021/05/21 08:22:04;;;;;;;6.40;4.00;;;;;;;12.00;74.03;99952.63;5073768;28;20095;-72
2021/05/21 08:24:30;;;;;;;4.40;3.40;;;;;;;12.13;74.06;99951.94;5074566;28;20048;-72
2021/05/21 08:26:55;;;;;;;7.50;4.28;;;;;;;12.04;73.16;99945.91;5074742;28;20105;-72
2021/05/21 08:29:21;;;;;;;6.53;3.27;;;;;;;12.01;73.28;99940.91;5073309;28;20450;-73
2021/05/21 08:31:46;;;;;;;5.10;3.33;;;;;;;11.87;73.00;99939.09;5073673;28;20032;-73
2021/05/21 08:34:11;;;;;;;4.70;3.50;;;;;;;11.79;73.27;99943.53;5056721;28;20446;-73
2021/05/21 08:36:37;;;;;;;7.40;4.10;;;;;;;12.10;74.42;99942.44;5073479;28;20501;-73
2021/05/21 08:39:02;;;;;;;9.27;4.17;;;;;;;12.72;71.28;99942.72;5073061;28;20673;-73
2021/05/21 08:41:29;;;;;;;9.18;3.85;;;;;;;12.74;69.81;99932.66;5074396;28;20478;-73
2021/05/21 08:43:55;;;;;;;6.05;3.63;;;;;;;12.90;71.39;99935.03;5074190;28;20044;-73
2021/05/21 08:46:23;;;;;;;6.50;3.70;;;;;;;13.81;69.06;99918.66;5074147;28;20040;-73
2021/05/21 08:48:49;;;;;;;7.60;3.78;;;;;;;14.27;66.79;99933.16;5072821;28;20032;-74
2021/05/21 08:51:16;;;;;;;11.43;3.83;;;;;;;14.02;66.53;99928.38;5074226;28;20032;-73
2021/05/21 08:53:42;;;;;;;8.73;3.03;;;;;;;14.05;64.30;99929.88;5074147;28;20359;-73
2021/05/21 08:56:08;;;;;;;4.57;2.70;;;;;;;14.96;64.34;99919.25;5074123;28;20120;-73
2021/05/21 08:58:35;;;;;;;6.30;3.08;;;;;;;15.01;59.66;99915.09;5073808;28;20048;-73
2021/05/21 09:01:01;;;;;;;4.68;3.05;;;;;;;15.61;61.40;99921.03;5074030;28;20358;-73
2021/05/21 09:03:28;;;;;;;5.60;2.70;;;;;;;15.77;58.58;99917.06;5073818;28;20043;-73
2021/05/21 09:06:22;;;;;;;5.63;2.38;;;;;;;15.59;55.39;99923.97;5073888;28;20040;-73
2021/05/21 09:08:55;;;;;;;4.35;2.33;;;;;;;15.09;58.88;99913.00;5073574;28;20124;-72
2021/05/21 09:11:35;;;;;;;3.90;2.47;;;;;;;16.27;55.33;99909.00;5072690;28;20358;-72
2021/05/21 09:14:04;;;;;;;9.88;2.28;;;;;;;16.85;52.89;99903.31;5072757;28;20028;-73
2021/05/21 09:16:35;;;;;;;15.93;2.33;;;;;;;15.98;55.61;99900.56;5072680;28;20048;-72
2021/05/21 09:19:00;;;;;;;3.38;1.90;;;;;;;15.87;57.66;99908.50;5072031;28;20477;-73
2021/05/21 09:21:44;;;;;;;3.07;2.07;;;;;;;15.09;55.98;99906.81;5072706;28;20072;-72
2021/05/21 09:24:09;;;;;;;5.43;2.55;;;;;;;14.23;59.72;99918.50;5072333;28;20445;-73
2021/05/21 09:26:44;;;;;;;4.97;2.60;;;;;;;13.59;60.65;99906.47;5073653;28;20045;-72
2021/05/21 09:29:14;;;;;;;5.63;2.00;;;;;;;13.90;59.69;99909.38;5073213;28;20043;-73
2021/05/21 09:31:49;;;;;;;2.97;1.88;;;;;;;13.51;60.71;99902.13;5073581;28;20059;-73
2021/05/21 09:34:33;;;;;;;5.07;1.95;;;;;;;13.09;61.83;99906.66;5072458;28;20055;-73
2021/05/21 09:36:59;;;;;;;9.48;2.08;;;;;;;12.82;61.08;99913.72;5073310;28;20123;-72
2021/05/21 09:39:25;;;;;;;3.33;1.73;;;;;;;12.98;61.78;99900.00;5072998;28;20051;-73
2021/05/21 09:41:57;;;;;;;8.93;2.10;;;;;;;12.82;62.05;99900.34;5073277;28;20044;-73
2021/05/21 09:44:23;;;;;;;4.00;1.70;;;;;;;12.67;62.73;99900.47;5072043;28;20131;-72
2021/05/21 09:46:50;;;;;;;5.28;1.85;;;;;;;12.41;62.12;99901.94;5071945;28;20047;-73
2021/05/21 09:49:36;;;;;;;6.00;1.60;;;;;;;12.34;62.02;99902.91;5072602;28;20032;-73
2021/05/21 09:52:04;;;;;;;2.78;1.42;;;;;;;12.27;62.96;99907.38;5072011;28;20331;-73
2021/05/21 09:54:48;;;;;;;6.03;1.50;;;;;;;12.27;64.13;99912.72;5072961;28;20025;-73
2021/05/21 09:57:14;;;;;;;2.83;1.70;;;;;;;12.07;63.65;99916.06;5072077;28;20063;-73
2021/05/21 09:59:47;;;;;;;2.57;1.00;;;;;;;12.09;63.43;99910.53;5071318;28;20453;-73
2021/05/21 10:02:31;;;;;;;6.10;1.70;;;;;;;11.94;64.41;99910.59;5073100;28;20111;-73
2021/05/21 10:04:59;;;;;;;9.13;1.90;;;;;;;11.99;65.27;99910.88;5072920;28;20101;-72
2021/05/21 10:07:25;;;;;;;3.88;1.33;;;;;;;11.82;65.16;99903.06;5073107;28;20045;-73
2021/05/21 10:09:51;;;;;;;5.35;1.75;;;;;;;11.56;66.18;99910.81;5072669;28;20020;-73
2021/05/21 10:12:16;;;;;;;3.63;1.67;;;;;;;11.85;66.82;99904.53;5072690;28;20048;-73
2021/05/21 10:14:48;;;;;;;3.95;1.98;;;;;;;11.69;66.29;99905.59;5072822;28;20037;-73
2021/05/21 10:17:17;;;;;;;8.10;1.70;;;;;;;11.83;64.32;99895.88;5072673;28;20044;-73
2021/05/21 10:19:43;;;;;;;7.95;1.73;;;;;;;11.96;64.28;99900.53;5072254;28;20052;-73
2021/05/21 10:22:12;;;;;;;8.75;2.28;;;;;;;12.48;63.31;99893.97;5072382;28;20051;-72
2021/05/21 10:24:40;;;;;;;4.85;1.70;;;;;;;12.67;61.85;99882.53;5072163;28;20041;-72
2021/05/21 10:27:15;;;;;;;5.50;1.98;;;;;;;14.83;58.68;99876.28;5072546;28;20040;-72
2021/05/21 10:29:43;;;;;;;2.97;1.40;;;;;;;14.86;55.18;99869.66;5072244;28;20135;-73
2021/05/21 10:32:14;;;;;;;7.22;1.50;;;;;;;14.92;54.55;99866.97;5072031;28;20040;-72
2021/05/21 10:34:42;;;;;;;4.70;1.95;;;;;;;15.26;53.75;99858.75;5071291;28;20052;-73
2021/05/21 10:37:31;;;;;;;;;;;;;;;15.33;55.24;99854.16;5072546;28;20079;-73
2021/05/21 10:40:24;;;;;;;3.67;1.23;;;;;;;15.73;53.03;99854.78;5072283;28;19966;-73
2021/05/21 10:43:16;;;;;;;6.05;1.85;;;;;;;15.43;54.73;99846.47;5072363;28;20417;-73
2021/05/21 10:45:56;;;;;;;10.20;2.33;;;;;;;16.94;51.36;99849.91;5070954;28;20086;-73
2021/05/21 10:48:25;;;;;;;4.80;1.77;;;;;;;15.85;50.79;99844.16;5070653;28;20401;-73
2021/05/21 10:51:06;;;;;;;5.03;2.25;;;;;;;16.67;49.11;99827.81;5071888;28;20036;-73
2021/05/21 10:53:32;;;;;;;8.18;2.03;;;;;;;16.70;48.85;99837.34;5070941;28;20078;-73
2021/05/21 10:55:57;;;;;;;6.17;1.70;;;;;;;16.23;49.92;99835.94;5071621;28;20064;-73
2021/05/21 10:58:33;;;;;;;12.07;2.37;;;;;;;16.81;46.59;99833.88;5053888;28;20444;-73
2021/05/21 11:01:12;;;;;;;8.45;2.25;;;;;;;18.07;46.42;99818.59;5071637;28;20029;-73
2021/05/21 11:03:56;;;;;;;6.88;1.83;;;;;;;18.42;43.28;99809.66;5071657;28;20040;-73
2021/05/21 11:06:22;;;;;;;9.55;2.08;;;;;;;18.00;43.53;99807.09;5070423;28;20058;-73
2021/05/21 11:08:48;;;;;;;8.30;2.03;;;;;;;18.07;44.75;99809.66;5071345;28;20032;-74
2021/05/21 11:11:14;;;;;;;6.70;1.50;;;;;;;18.82;44.60;99817.00;5071564;28;20393;-73
2021/05/21 11:13:41;;;;;;;10.43;2.08;;;;;;;18.76;42.21;99815.25;5071478;28;20040;-73
2021/05/21 11:16:13;;;;;;;5.05;1.42;;;;;;;18.68;42.77;99831.84;5071488;28;20047;-73
2021/05/21 11:18:48;;;;;;;8.73;1.58;;;;;;;18.14;44.21;99827.44;5071120;28;20438;-73
2021/05/21 11:21:19;;;;;;;9.52;1.83;;;;;;;17.76;45.52;99835.09;5071309;28;20051;-73
2021/05/21 11:23:45;;;;;;;9.68;2.30;;;;;;;16.49;46.13;99835.91;5070117;28;20029;-74
2021/05/21 11:26:13;;;;;;;11.27;2.47;;;;;;;17.02;44.04;99827.19;5071099;28;20040;-73
2021/05/21 11:28:44;;;;;;;6.38;1.95;;;;;;;18.69;44.98;99807.28;5069928;28;20040;-73